Time;durP1;ratioP1;P1;durP2;ratioP2;P2;SDS_P1;SDS_P2;PMS_P1;PMS_P2;Temp;Humidity;BMP_temperature;BMP_pressure;BME280_temperature;BME280_humidity;BME280_pressure;Samples;Min_cycle;Max_cycle;Signal;HPM_P1;HPM_P2
2021/10/21 00:00:49;;;;;;;7.80;7.00;;;14.70;99.90;;;;;;6197508;23;20610;-90
2021/10/21 00:03:15;;;;;;;8.30;7.33;;;14.80;99.90;;;;;;6196466;23;20525;-90
2021/10/21 00:05:48;;;;;;;7.17;6.47;;;14.70;99.90;;;;;;6197296;23;20490;-90
2021/10/21 00:08:14;;;;;;;9.10;6.90;;;14.70;99.90;;;;;;6197347;23;20171;-90
2021/10/21 00:10:40;;;;;;;9.37;7.83;;;14.70;99.90;;;;;;6198137;23;20398;-89
2021/10/21 00:13:06;;;;;;;7.90;7.10;;;14.60;99.90;;;;;;6197298;23;20457;-90
2021/10/21 00:15:33;;;;;;;8.33;7.43;;;14.60;99.90;;;;;;6198399;23;20163;-90
2021/10/21 00:18:27;;;;;;;9.13;8.23;;;14.50;99.90;;;;;;6199166;23;20609;-89
2021/10/21 00:20:52;;;;;;;8.07;7.27;;;14.40;99.90;;;;;;6198697;23;20409;-89
2021/10/21 00:23:18;;;;;;;8.40;7.63;;;14.50;99.90;;;;;;6201138;23;20495;-90
2021/10/21 00:25:44;;;;;;;9.27;7.40;;;14.60;99.90;;;;;;6198063;23;20470;-90
2021/10/21 00:28:12;;;;;;;8.20;7.40;;;14.50;99.90;;;;;;6198066;23;20171;-90
2021/10/21 00:30:38;;;;;;;7.33;6.63;;;14.40;99.90;;;;;;6197282;23;20168;-90
2021/10/21 00:33:05;;;;;;;9.03;8.17;;;14.50;99.90;;;;;;6197361;23;20920;-90
2021/10/21 00:35:34;;;;;;;10.57;9.47;;;14.50;99.90;;;;;;6197549;23;20433;-90
2021/10/21 00:38:01;;;;;;;10.60;9.33;;;14.30;99.90;;;;;;6198324;23;20806;-90
2021/10/21 00:40:26;;;;;;;11.53;8.90;;;14.30;99.90;;;;;;6197986;23;20402;-89
2021/10/21 00:45:30;;;;;;;10.70;9.03;;;14.40;99.90;;;;;;6200870;23;20484;-88
2021/10/21 00:47:56;;;;;;;9.03;8.20;;;14.40;99.90;;;;;;6198335;23;20415;-88
2021/10/21 00:50:22;;;;;;;9.13;8.23;;;14.40;99.90;;;;;;6197997;23;20562;-87
2021/10/21 00:52:49;;;;;;;9.40;8.50;;;14.40;99.90;;;;;;6197168;23;20524;-89
2021/10/21 00:55:28;;;;;;;9.17;8.20;;;14.30;99.90;;;;;;6197061;23;20813;-89
2021/10/21 00:57:56;;;;;;;10.10;8.83;;;14.20;99.90;;;;;;6196606;23;20485;-89
2021/10/21 01:00:25;;;;;;;9.43;8.50;;;14.10;99.90;;;;;;6196343;23;20482;-88
2021/10/21 01:02:51;;;;;;;10.70;9.03;;;14.00;99.90;;;;;;6196562;23;20450;-88
2021/10/21 01:05:20;;;;;;;10.30;9.33;;;14.00;99.90;;;;;;6195809;23;20417;-89
2021/10/21 01:08:06;;;;;;;9.70;8.80;;;14.00;99.90;;;;;;6199119;23;20164;-88
2021/10/21 01:10:32;;;;;;;9.43;8.43;;;14.00;99.90;;;;;;6172238;23;20496;-88
2021/10/21 01:13:00;;;;;;;12.53;9.87;;;14.00;99.90;;;;;;6172996;23;20439;-89
2021/10/21 01:15:27;;;;;;;12.90;11.60;;;14.00;99.90;;;;;;6173648;23;20391;-89
2021/10/21 01:17:54;;;;;;;13.07;11.67;;;13.90;99.90;;;;;;6172563;23;20426;-89
2021/10/21 01:20:21;;;;;;;11.60;10.50;;;13.90;99.90;;;;;;6174348;23;20415;-88
2021/10/21 01:22:47;;;;;;;12.97;11.50;;;13.80;99.90;;;;;;6173500;23;20860;-89
2021/10/21 01:25:19;;;;;;;11.93;10.83;;;13.80;99.90;;;;;;6184124;23;20394;-89
2021/10/21 01:27:46;;;;;;;11.20;10.07;;;13.80;99.90;;;;;;6182591;23;20166;-89
2021/10/21 01:30:24;;;;;;;11.03;9.80;;;13.80;99.90;;;;;;6174603;23;20399;-88
2021/10/21 01:32:52;;;;;;;10.50;9.30;;;13.80;99.90;;;;;;6175409;23;20406;-90
2021/10/21 01:35:19;;;;;;;11.03;9.27;;;13.80;99.90;;;;;;6175959;23;20390;-89
2021/10/21 01:37:47;;;;;;;10.60;9.10;;;13.80;99.90;;;;;;6180706;23;20457;-89
2021/10/21 01:40:14;;;;;;;8.20;7.33;;;13.80;99.90;;;;;;6180256;23;20715;-90
2021/10/21 01:42:46;;;;;;;9.17;8.33;;;13.90;99.90;;;;;;6178865;23;20533;-89
2021/10/21 01:45:32;;;;;;;9.30;8.40;;;14.00;99.90;;;;;;6207987;23;20724;-89
2021/10/21 01:48:01;;;;;;;9.03;8.17;;;14.00;99.90;;;;;;6177962;23;20399;-89
2021/10/21 01:50:30;;;;;;;7.77;7.07;;;14.10;99.90;;;;;;6179950;23;20395;-89
2021/10/21 01:52:59;;;;;;;8.63;7.73;;;14.10;99.90;;;;;;6180385;23;20406;-89
2021/10/21 01:55:25;;;;;;;7.00;6.37;;;14.10;99.90;;;;;;6179340;23;20760;-90
2021/10/21 01:57:52;;;;;;;7.67;6.93;;;14.10;99.90;;;;;;6179703;23;20403;-89
2021/10/21 02:00:21;;;;;;;7.80;7.00;;;14.10;99.90;;;;;;6179906;23;20908;-89
2021/10/21 02:02:47;;;;;;;8.27;7.47;;;14.20;99.90;;;;;;6179065;23;20448;-88
2021/10/21 02:05:19;;;;;;;6.83;6.23;;;14.10;99.90;;;;;;6179843;23;20719;-89
2021/10/21 02:07:48;;;;;;;7.80;7.00;;;14.10;99.90;;;;;;6208163;23;20401;-89
2021/10/21 02:10:17;;;;;;;8.30;6.90;;;14.10;99.90;;;;;;6179711;23;20386;-89
2021/10/21 02:12:43;;;;;;;9.20;8.30;;;14.10;99.90;;;;;;6180165;23;20783;-89
2021/10/21 02:15:17;;;;;;;7.77;6.97;;;14.10;99.90;;;;;;6180511;23;20398;-90
2021/10/21 02:17:45;;;;;;;8.17;7.43;;;14.10;99.90;;;;;;6155823;23;20756;-89
2021/10/21 02:20:13;;;;;;;10.47;8.23;;;14.10;99.90;;;;;;6180439;23;20390;-89
2021/10/21 02:22:39;;;;;;;8.53;7.63;;;14.10;99.90;;;;;;6179516;23;20442;-89
2021/10/21 02:25:06;;;;;;;9.03;8.13;;;14.10;99.90;;;;;;6179515;23;20401;-89
2021/10/21 02:27:34;;;;;;;10.40;8.60;;;14.10;99.90;;;;;;6179372;23;20468;-89
2021/10/21 02:29:59;;;;;;;9.20;8.33;;;14.10;99.90;;;;;;6207559;23;20861;-88
2021/10/21 02:32:25;;;;;;;10.93;8.67;;;14.00;99.90;;;;;;6205512;23;20406;-90
2021/10/21 02:34:58;;;;;;;9.70;8.80;;;14.00;99.90;;;;;;6153198;23;20194;-89
2021/10/21 02:37:24;;;;;;;9.10;8.13;;;14.10;99.90;;;;;;6175424;23;20167;-89
2021/10/21 02:39:50;;;;;;;8.87;7.97;;;14.10;99.90;;;;;;6177201;23;20942;-90
2021/10/21 02:42:15;;;;;;;9.63;8.73;;;14.10;99.90;;;;;;6173776;23;20194;-90
2021/10/21 02:44:41;;;;;;;9.10;8.27;;;14.10;99.90;;;;;;6174429;23;20178;-89
2021/10/21 02:47:15;;;;;;;9.23;7.83;;;14.10;99.90;;;;;;6174013;23;20175;-89
2021/10/21 02:50:02;;;;;;;9.77;8.07;;;14.10;99.90;;;;;;6174655;23;20171;-90
2021/10/21 02:52:30;;;;;;;8.60;7.50;;;14.10;99.90;;;;;;6173009;23;20401;-90
2021/10/21 02:54:55;;;;;;;8.87;7.97;;;14.10;99.90;;;;;;6182929;23;20403;-90
2021/10/21 02:57:21;;;;;;;9.10;7.67;;;14.10;99.90;;;;;;6182138;23;21176;-90
2021/10/21 02:59:47;;;;;;;8.67;7.87;;;14.20;99.90;;;;;;6177690;23;20548;-89
2021/10/21 03:02:12;;;;;;;9.53;8.53;;;14.20;99.90;;;;;;6173949;23;20159;-89
2021/10/21 03:04:38;;;;;;;9.17;8.27;;;14.10;99.90;;;;;;6174587;23;20168;-89
2021/10/21 03:07:04;;;;;;;8.30;7.50;;;14.10;99.90;;;;;;6195454;23;20603;-91
2021/10/21 03:09:30;;;;;;;8.67;7.87;;;14.10;99.90;;;;;;6174448;23;20517;-90
2021/10/21 03:11:55;;;;;;;9.20;8.30;;;14.10;99.90;;;;;;6198981;23;20860;-90
2021/10/21 03:14:21;;;;;;;9.50;8.50;;;14.10;99.90;;;;;;6198317;23;20550;-90
2021/10/21 03:16:49;;;;;;;9.03;7.90;;;14.10;99.90;;;;;;6200883;23;20857;-90
2021/10/21 03:19:15;;;;;;;8.57;7.77;;;14.20;99.90;;;;;;6198447;23;20394;-90
2021/10/21 03:21:40;;;;;;;8.80;7.90;;;14.10;99.90;;;;;;6199186;23;20233;-90
2021/10/21 03:24:06;;;;;;;8.60;7.70;;;14.10;99.90;;;;;;6198345;23;20719;-90
2021/10/21 03:26:35;;;;;;;9.90;7.83;;;14.10;99.90;;;;;;6198553;23;20218;-89
2021/10/21 03:29:02;;;;;;;8.00;7.20;;;14.20;99.90;;;;;;6199035;23;20298;-90
2021/10/21 03:32:14;;;;;;;7.20;6.50;;;14.20;99.90;;;;;;6195662;23;20386;-90
2021/10/21 03:34:47;;;;;;;6.83;6.23;;;14.40;99.90;;;;;;6198935;23;20409;-90
2021/10/21 03:37:13;;;;;;;5.73;5.20;;;14.40;99.90;;;;;;6196659;23;20399;-91
2021/10/21 03:39:39;;;;;;;4.87;4.47;;;14.60;99.90;;;;;;6200078;23;20806;-89
2021/10/21 03:42:08;;;;;;;3.57;3.23;;;14.70;99.90;;;;;;6200457;23;20214;-91
2021/10/21 03:44:56;;;;;;;3.47;3.17;;;14.90;99.90;;;;;;6198942;23;20417;-92
2021/10/21 03:47:23;;;;;;;3.43;2.40;;;14.90;99.90;;;;;;6199244;23;20518;-91
2021/10/21 03:49:51;;;;;;;3.13;2.27;;;14.90;99.90;;;;;;6200723;23;20469;-90
2021/10/21 03:52:20;;;;;;;4.47;2.53;;;14.90;99.90;;;;;;6201334;23;20386;-90
2021/10/21 03:54:47;;;;;;;1.80;1.70;;;14.80;99.90;;;;;;6196752;23;20778;-89
2021/10/21 03:57:14;;;;;;;1.70;1.60;;;14.80;99.90;;;;;;6198775;23;20483;-89
2021/10/21 03:59:49;;;;;;;2.80;1.83;;;14.80;99.90;;;;;;6198992;23;20417;-90
2021/10/21 04:02:19;;;;;;;1.37;1.27;;;14.90;99.90;;;;;;6196856;23;20434;-90
2021/10/21 04:04:45;;;;;;;1.23;1.10;;;14.90;99.90;;;;;;6197496;23;21132;-90
2021/10/21 04:07:17;;;;;;;1.77;1.17;;;14.90;99.90;;;;;;6059093;23;3322321;-91
2021/10/21 04:09:44;;;;;;;1.50;1.20;;;14.90;99.90;;;;;;6200911;23;20555;-92
2021/10/21 04:12:18;;;;;;;2.47;0.90;;;15.00;99.90;;;;;;6201514;23;20707;-93
2021/10/21 04:17:37;;;;;;;1.10;1.00;;;14.90;99.90;;;;;;6203701;23;20474;-89
2021/10/21 04:20:12;;;;;;;1.10;1.00;;;15.00;99.90;;;;;;6203646;23;20509;-89
2021/10/21 04:22:38;;;;;;;1.73;0.93;;;15.00;99.90;;;;;;6199270;23;20434;-90
2021/10/21 04:25:04;;;;;;;1.10;1.00;;;15.00;99.90;;;;;;6210285;23;20654;-92
2021/10/21 04:27:30;;;;;;;0.87;0.87;;;14.80;99.90;;;;;;6207132;23;20184;-91
2021/10/21 04:29:56;;;;;;;0.70;0.70;;;14.80;99.90;;;;;;6207488;23;21064;-91
2021/10/21 04:32:22;;;;;;;1.27;0.80;;;14.80;99.90;;;;;;6205124;23;20160;-89
2021/10/21 04:34:47;;;;;;;0.97;0.80;;;14.80;99.90;;;;;;6204190;23;20164;-92
2021/10/21 04:39:52;;;;;;;1.13;0.80;;;14.70;99.90;;;;;;6207056;23;20226;-89
2021/10/21 04:42:19;;;;;;;1.90;0.93;;;14.60;99.90;;;;;;6206394;23;20387;-93
2021/10/21 04:44:47;;;;;;;2.40;0.77;;;14.50;99.90;;;;;;6205922;23;20486;-93
2021/10/21 04:47:15;;;;;;;2.23;1.30;;;14.40;99.90;;;;;;6206689;23;20242;-90
2021/10/21 04:49:52;;;;;;;1.10;1.00;;;14.40;99.90;;;;;;6205472;23;20406;-89
2021/10/21 04:52:18;;;;;;;1.70;0.70;;;14.40;99.90;;;;;;6204149;23;20457;-90
2021/10/21 04:54:43;;;;;;;0.73;0.73;;;14.30;99.90;;;;;;6205010;23;20499;-90
2021/10/21 04:57:09;;;;;;;1.43;0.73;;;14.20;99.90;;;;;;6205534;23;20164;-90
2021/10/21 04:59:35;;;;;;;1.63;1.20;;;14.20;99.90;;;;;;6206866;23;20171;-91
2021/10/21 05:02:00;;;;;;;1.70;0.90;;;14.10;99.90;;;;;;6206039;23;20578;-91
2021/10/21 05:04:26;;;;;;;1.70;1.00;;;14.10;99.90;;;;;;6206586;23;20230;-90
2021/10/21 05:06:52;;;;;;;1.00;0.97;;;14.10;99.90;;;;;;6207615;23;20446;-91
2021/10/21 05:09:19;;;;;;;0.87;0.87;;;14.00;99.90;;;;;;6206731;23;20526;-91
2021/10/21 05:11:51;;;;;;;0.83;0.83;;;14.00;99.90;;;;;;6206587;23;20214;-91
2021/10/21 05:14:20;;;;;;;1.60;1.00;;;14.00;99.90;;;;;;6206229;23;20402;-90
2021/10/21 05:16:46;;;;;;;2.00;1.10;;;13.90;99.90;;;;;;6206712;23;20468;-90
2021/10/21 05:19:12;;;;;;;2.40;0.90;;;13.90;99.90;;;;;;6182160;23;20407;-90
2021/10/21 05:21:40;;;;;;;0.90;0.90;;;13.80;99.90;;;;;;6206982;23;20251;-91
2021/10/21 05:24:12;;;;;;;1.70;0.87;;;13.80;99.90;;;;;;6179010;23;20534;-89
2021/10/21 05:26:40;;;;;;;2.30;0.70;;;13.80;99.90;;;;;;6205808;23;20533;-90
2021/10/21 05:29:26;;;;;;;3.00;1.00;;;13.80;99.90;;;;;;6200716;23;20872;-88
2021/10/21 05:31:53;;;;;;;2.20;0.80;;;13.80;99.90;;;;;;6201895;23;20387;-89
2021/10/21 05:34:18;;;;;;;0.80;0.80;;;13.70;99.90;;;;;;6200057;23;20382;-89
2021/10/21 05:36:45;;;;;;;1.10;0.90;;;13.70;99.90;;;;;;6178226;23;20448;-88
2021/10/21 05:39:12;;;;;;;1.93;0.90;;;13.60;99.90;;;;;;6203251;23;20167;-89
2021/10/21 05:41:38;;;;;;;2.30;0.70;;;13.60;99.90;;;;;;6201262;23;20771;-88
2021/10/21 05:44:10;;;;;;;7.80;0.97;;;13.60;99.90;;;;;;6201124;23;20478;-89
2021/10/21 05:46:40;;;;;;;2.53;1.00;;;13.60;99.90;;;;;;6199880;23;20174;-90
2021/10/21 05:49:19;;;;;;;3.30;0.83;;;13.50;99.90;;;;;;6202512;23;20402;-91
2021/10/21 05:51:46;;;;;;;2.33;0.70;;;13.40;99.90;;;;;;6179982;23;20406;-92
2021/10/21 05:54:14;;;;;;;4.17;0.90;;;13.30;99.90;;;;;;6204374;23;20429;-90
2021/10/21 05:57:09;;;;;;;2.63;0.70;;;13.30;99.90;;;;;;6211922;23;20466;-91
2021/10/21 05:59:34;;;;;;;1.93;0.87;;;13.30;99.90;;;;;;6203614;23;20394;-88
2021/10/21 06:02:00;;;;;;;5.83;1.37;;;13.30;99.90;;;;;;6201281;23;20861;-90
2021/10/21 06:04:26;;;;;;;3.03;0.73;;;13.30;99.90;;;;;;6201627;23;20195;-91
2021/10/21 06:06:52;;;;;;;1.47;1.03;;;13.20;99.90;;;;;;6202227;23;20187;-91
2021/10/21 06:09:20;;;;;;;4.10;0.90;;;13.10;99.90;;;;;;6201552;23;20167;-92
2021/10/21 06:12:21;;;;;;;3.50;1.20;;;13.20;99.90;;;;;;6205708;23;20614;-90
2021/10/21 06:14:47;;;;;;;3.77;1.20;;;13.10;99.90;;;;;;6202172;23;20486;-93
2021/10/21 06:17:13;;;;;;;3.00;1.67;;;13.10;99.90;;;;;;6206414;23;20449;-92
2021/10/21 06:19:47;;;;;;;9.50;2.00;;;13.00;99.90;;;;;;6206771;23;20174;-91
2021/10/21 06:22:18;;;;;;;3.80;0.83;;;13.10;99.90;;;;;;6193644;23;20503;-91
2021/10/21 06:25:03;;;;;;;5.90;1.30;;;13.10;99.90;;;;;;6205618;23;20704;-92
2021/10/21 06:27:37;;;;;;;6.00;1.20;;;13.10;99.90;;;;;;6203718;23;20968;-92
2021/10/21 06:30:31;;;;;;;4.67;1.10;;;13.10;99.90;;;;;;6202970;23;20882;-92
2021/10/21 06:33:15;;;;;;;3.50;1.10;;;13.10;99.90;;;;;;6205783;23;20390;-91
2021/10/21 06:35:45;;;;;;;6.10;1.03;;;13.10;99.90;;;;;;6208337;23;20406;-91
2021/10/21 06:38:13;;;;;;;2.97;0.80;;;13.10;99.90;;;;;;6203058;23;20395;-91
2021/10/21 06:40:39;;;;;;;7.10;1.30;;;13.10;99.90;;;;;;6201590;23;20746;-87
2021/10/21 06:43:05;;;;;;;3.80;0.90;;;13.00;99.90;;;;;;6200486;23;20443;-86
2021/10/21 06:45:32;;;;;;;5.57;1.23;;;13.00;99.90;;;;;;6200143;23;20190;-88
2021/10/21 06:47:58;;;;;;;6.20;1.60;;;13.00;99.90;;;;;;6202459;23;20410;-87
2021/10/21 06:50:23;;;;;;;4.10;1.10;;;13.10;99.90;;;;;;6200217;23;20395;-86
2021/10/21 06:52:49;;;;;;;2.67;0.93;;;13.00;99.90;;;;;;6201925;23;20402;-89
2021/10/21 06:55:16;;;;;;;4.00;1.00;;;13.00;99.90;;;;;;6199167;23;20262;-87
2021/10/21 06:57:53;;;;;;;6.93;1.47;;;13.00;99.90;;;;;;6199126;23;20314;-88
2021/10/21 07:00:20;;;;;;;7.33;1.43;;;13.10;99.90;;;;;;6200554;23;20402;-88
2021/10/21 07:02:46;;;;;;;5.33;1.67;;;13.10;99.90;;;;;;6178265;23;20607;-94
2021/10/21 07:05:14;;;;;;;3.73;0.90;;;13.10;99.90;;;;;;6203155;23;20865;-90
2021/10/21 07:07:43;;;;;;;3.57;1.20;;;13.10;99.90;;;;;;6200187;23;20493;-90
2021/10/21 07:10:09;;;;;;;6.20;1.10;;;13.10;99.90;;;;;;6199939;23;20398;-90
2021/10/21 07:12:42;;;;;;;7.73;1.13;;;13.20;99.90;;;;;;6199789;23;20391;-90
2021/10/21 07:15:09;;;;;;;7.83;1.53;;;13.30;99.90;;;;;;6199948;23;20421;-89
2021/10/21 07:17:41;;;;;;;4.47;1.03;;;13.40;99.90;;;;;;6200628;23;21776;-91
2021/10/21 07:20:08;;;;;;;3.03;0.97;;;13.50;99.90;;;;;;6200917;23;20399;-94
2021/10/21 07:22:34;;;;;;;5.07;1.20;;;13.60;99.90;;;;;;6199117;23;20553;-90
2021/10/21 07:25:00;;;;;;;1.60;0.83;;;13.70;99.90;;;;;;6206490;23;20426;-90
2021/10/21 07:27:27;;;;;;;4.73;1.10;;;13.70;99.90;;;;;;6210503;23;20407;-89
2021/10/21 07:29:53;;;;;;;6.20;1.80;;;13.80;99.90;;;;;;6202049;23;20395;-89
2021/10/21 07:32:21;;;;;;;4.07;1.20;;;13.80;99.20;;;;;;6199939;23;20719;-91
2021/10/21 07:34:47;;;;;;;4.73;0.87;;;13.70;99.30;;;;;;6202280;23;20166;-90
2021/10/21 07:37:14;;;;;;;3.17;1.50;;;13.80;99.20;;;;;;6203950;23;21215;-91
2021/10/21 07:40:02;;;;;;;3.13;1.20;;;13.90;99.30;;;;;;6205311;23;20473;-90
2021/10/21 07:45:51;;;;;;;6.50;0.83;;;14.00;99.30;;;;;;6189887;23;20394;-90
2021/10/21 07:52:05;;;;;;;;;;;;;;;;;;;;;
2021/10/21 07:54:41;;;;;;;1.17;0.50;;;14.10;97.80;;;;;;6144638;23;20459;-91
2021/10/21 07:57:07;;;;;;;1.73;1.07;;;14.00;97.50;;;;;;6214672;23;20469;-89
2021/10/21 07:59:36;;;;;;;3.63;0.57;;;14.00;97.40;;;;;;6181756;23;20168;-92
2021/10/21 08:02:04;;;;;;;2.00;0.50;;;13.90;97.60;;;;;;6206323;23;20179;-91
2021/10/21 08:04:33;;;;;;;3.40;0.90;;;13.80;97.80;;;;;;6206783;23;20442;-92
2021/10/21 08:07:03;;;;;;;2.03;0.67;;;13.70;97.30;;;;;;6206860;23;20519;-91
2021/10/21 08:09:31;;;;;;;1.13;0.37;;;13.70;96.90;;;;;;6156772;23;20419;-89
2021/10/21 08:12:21;;;;;;;3.67;0.70;;;13.70;97.10;;;;;;6190699;23;20397;-96
2021/10/21 08:15:30;;;;;;;1.57;0.40;;;13.60;97.10;;;;;;6216260;23;20466;-94
2021/10/21 14:10:08;;;;;;;1.80;0.70;;;15.70;86.00;;;;;;6201995;23;20788;-88
2021/10/21 14:12:34;;;;;;;1.70;0.70;;;15.90;87.20;;;;;;6207592;23;20390;-86
2021/10/21 14:15:00;;;;;;;2.50;1.13;;;16.20;85.60;;;;;;6205278;23;20812;-86
2021/10/21 14:17:33;;;;;;;1.37;0.50;;;16.10;82.10;;;;;;6207713;23;20152;-88
2021/10/21 14:20:05;;;;;;;0.80;0.60;;;15.80;81.60;;;;;;6213464;23;20255;-90
2021/10/21 14:22:31;;;;;;;1.97;0.77;;;15.80;83.00;;;;;;6209047;23;20422;-90
2021/10/21 14:24:56;;;;;;;2.13;0.70;;;15.80;83.40;;;;;;6208788;23;20390;-89
2021/10/21 14:27:22;;;;;;;1.20;0.60;;;15.70;81.90;;;;;;6209610;23;20453;-88
2021/10/21 14:29:50;;;;;;;2.80;0.50;;;15.50;82.50;;;;;;6207955;23;20163;-89
2021/10/21 14:32:16;;;;;;;2.90;0.90;;;15.70;83.90;;;;;;6207709;23;20843;-89
2021/10/21 14:34:44;;;;;;;2.90;0.43;;;15.80;83.70;;;;;;6207726;23;20509;-90
2021/10/21 14:37:25;;;;;;;1.50;0.90;;;16.10;84.30;;;;;;6206351;23;20481;-91
2021/10/21 14:39:54;;;;;;;1.23;0.50;;;16.10;83.50;;;;;;6203956;23;20399;-92
2021/10/21 14:42:20;;;;;;;2.13;0.70;;;16.60;83.20;;;;;;6204795;23;20873;-91
2021/10/21 14:44:47;;;;;;;2.10;0.67;;;16.30;81.20;;;;;;6206733;23;20409;-96
2021/10/21 14:47:35;;;;;;;3.33;0.60;;;16.50;82.70;;;;;;6208318;23;20406;-92
2021/10/21 14:50:04;;;;;;;2.67;0.70;;;16.30;82.20;;;;;;6214927;23;20394;-96
2021/10/21 14:52:30;;;;;;;2.50;0.80;;;16.20;82.30;;;;;;6207183;23;20410;-94
2021/10/21 14:54:56;;;;;;;1.47;0.70;;;16.50;81.60;;;;;;6214398;23;20402;-95
2021/10/21 14:57:24;;;;;;;2.70;0.60;;;15.90;82.80;;;;;;6213401;23;20399;-94
2021/10/21 15:00:02;;;;;;;1.07;0.60;;;15.50;84.40;;;;;;6207385;23;20481;-93
2021/10/21 15:02:27;;;;;;;0.93;0.53;;;15.30;86.40;;;;;;6204411;23;20905;-94
2021/10/21 15:04:54;;;;;;;3.37;0.93;;;15.10;88.20;;;;;;6204357;23;20538;-94
2021/10/21 15:12:58;;;;;;;1.40;0.80;;;14.80;89.10;;;;;;6181216;23;20445;-95
2021/10/21 15:23:35;;;;;;;1.77;0.73;;;14.40;91.00;;;;;;6206527;23;20493;-95
2021/10/21 15:26:01;;;;;;;3.50;0.93;;;14.30;91.30;;;;;;6175055;23;20506;-94
2021/10/21 15:28:29;;;;;;;2.50;1.13;;;14.30;90.40;;;;;;6179402;23;20410;-92
2021/10/21 15:33:35;;;;;;;2.67;0.93;;;14.30;88.70;;;;;;6208031;23;20398;-94
2021/10/21 15:39:00;;;;;;;3.83;0.97;;;14.20;90.10;;;;;;6206835;23;20400;-94
2021/10/21 15:41:25;;;;;;;2.47;0.90;;;14.20;90.00;;;;;;6181230;23;20399;-94
2021/10/21 15:44:10;;;;;;;4.00;1.17;;;14.20;90.40;;;;;;6179811;23;20530;-95
2021/10/21 15:46:36;;;;;;;4.80;0.63;;;14.20;90.50;;;;;;6181012;23;20238;-93
2021/10/21 16:11:23;;;;;;;3.60;1.33;;;13.30;92.40;;;;;;6208991;23;20390;-94
2021/10/21 16:16:44;;;;;;;5.10;1.50;;;13.10;92.20;;;;;;6210362;23;20411;-93
2021/10/21 16:19:12;;;;;;;2.67;1.43;;;13.10;92.40;;;;;;6186463;23;20795;-94
2021/10/21 16:21:42;;;;;;;3.80;1.20;;;13.00;92.60;;;;;;6184515;23;20419;-93
2021/10/21 16:24:13;;;;;;;1.70;1.10;;;12.90;92.90;;;;;;6212541;23;20442;-94
2021/10/21 16:29:33;;;;;;;2.90;1.30;;;12.70;93.50;;;;;;6216088;23;20562;-94
2021/10/21 16:32:02;;;;;;;3.60;1.60;;;12.60;93.80;;;;;;6183646;23;20478;-94
2021/10/21 16:38:04;;;;;;;3.30;1.30;;;12.60;94.20;;;;;;6210620;23;20378;-95
2021/10/21 16:40:35;;;;;;;2.70;1.43;;;12.60;94.60;;;;;;6211551;23;20401;-94
2021/10/21 16:43:01;;;;;;;4.40;1.70;;;12.50;95.10;;;;;;6186256;23;20438;-93
2021/10/21 16:45:28;;;;;;;2.80;1.93;;;12.50;95.00;;;;;;6180398;23;20389;-93
2021/10/21 16:47:54;;;;;;;2.60;2.20;;;12.60;94.90;;;;;;6179219;23;20397;-93
2021/10/21 16:50:21;;;;;;;2.67;1.70;;;12.70;95.00;;;;;;6155235;23;20422;-92
2021/10/21 16:52:49;;;;;;;3.73;1.90;;;12.70;94.90;;;;;;6205965;23;20506;-94
2021/10/21 16:55:15;;;;;;;3.27;1.60;;;12.70;95.00;;;;;;6179341;23;20832;-93
2021/10/21 16:57:41;;;;;;;1.97;1.40;;;12.70;95.50;;;;;;6181101;23;20395;-93
2021/10/21 17:00:24;;;;;;;4.70;1.73;;;12.60;95.50;;;;;;6207626;23;20393;-92
2021/10/21 17:06:06;;;;;;;3.53;1.63;;;12.60;95.50;;;;;;6208779;23;20186;-94
2021/10/21 17:08:33;;;;;;;4.70;2.03;;;12.60;95.30;;;;;;6158051;23;20391;-94
2021/10/21 17:11:00;;;;;;;8.17;4.13;;;12.60;95.40;;;;;;6158397;23;20178;-94
2021/10/21 17:13:26;;;;;;;7.50;3.70;;;12.60;95.10;;;;;;6182339;23;20441;-94
2021/10/21 17:15:52;;;;;;;7.43;2.47;;;12.60;95.00;;;;;;6180341;23;20398;-94
2021/10/21 17:18:19;;;;;;;5.30;1.80;;;12.60;94.80;;;;;;6157867;23;20164;-94
2021/10/21 17:23:33;;;;;;;2.57;1.37;;;12.60;94.70;;;;;;6209526;23;20448;-94
2021/10/21 17:26:00;;;;;;;5.57;1.60;;;12.70;94.70;;;;;;6206581;23;20394;-93
2021/10/21 17:28:31;;;;;;;2.17;1.30;;;12.60;94.70;;;;;;6208339;23;20725;-93
2021/10/21 17:31:01;;;;;;;2.13;1.30;;;12.60;94.80;;;;;;6209546;23;20394;-94
2021/10/21 17:33:29;;;;;;;2.87;1.63;;;12.60;95.10;;;;;;6185927;23;20536;-94
2021/10/21 17:35:55;;;;;;;4.67;2.10;;;12.50;95.10;;;;;;6185264;23;20404;-95
2021/10/21 17:38:22;;;;;;;3.00;1.33;;;12.50;95.00;;;;;;6210382;23;20422;-94
2021/10/21 17:40:50;;;;;;;9.23;1.93;;;12.50;95.00;;;;;;6210801;23;20389;-93
2021/10/21 17:43:20;;;;;;;3.60;1.70;;;12.50;95.00;;;;;;6181322;23;20690;-95
2021/10/21 17:45:48;;;;;;;3.63;1.87;;;12.40;95.30;;;;;;6181205;23;20246;-95
2021/10/21 17:48:15;;;;;;;2.47;1.60;;;12.50;95.40;;;;;;6182081;23;20395;-94
2021/10/21 17:50:41;;;;;;;4.70;2.10;;;12.40;95.30;;;;;;6185263;23;20433;-94
2021/10/21 17:53:15;;;;;;;3.83;1.97;;;12.40;95.40;;;;;;6181233;23;20740;-94
2021/10/21 17:55:41;;;;;;;5.93;3.30;;;12.40;95.30;;;;;;6224888;23;20739;-94
2021/10/21 17:58:16;;;;;;;3.40;2.90;;;12.40;95.50;;;;;;6199562;23;20382;-94
2021/10/21 18:00:42;;;;;;;7.17;3.90;;;12.40;95.60;;;;;;6192558;23;20418;-95
2021/10/21 18:03:10;;;;;;;9.47;6.07;;;12.40;95.60;;;;;;6186733;23;20434;-96
2021/10/21 18:05:36;;;;;;;17.63;10.80;;;12.40;95.80;;;;;;6193328;23;20387;-96
2021/10/21 18:08:05;;;;;;;32.83;17.80;;;12.40;96.00;;;;;;6202467;23;20429;-96
2021/10/21 18:10:31;;;;;;;30.10;15.40;;;12.30;96.00;;;;;;6215076;23;20186;-93
2021/10/21 19:02:19;;;;;;;3.50;2.00;;;11.60;99.90;;;;;;6243512;22;20452;-95
2021/10/21 19:07:42;;;;;;;5.87;2.13;;;11.60;99.90;;;;;;6281984;22;20389;-96
2021/10/21 23:16:56;;;;;;;2.07;1.70;;;8.00;99.90;;;;;;6215245;23;20447;-96
2021/10/21 23:24:36;;;;;;;2.10;1.57;;;8.00;99.90;;;;;;6210103;22;20961;-95
2021/10/21 23:27:12;;;;;;;2.00;1.80;;;8.00;99.90;;;;;;6219571;23;20427;-95
